OKI weather

Oki Airport
Okinoshima, Shimane Prefecture, Japan

Public forecast

Using degrees Celsius for public forecast. Weather courtesy of forecast.io.

Closest aviation weather report (METAR) to Oki Airport

Closest report is Miho Yonago Airport, 41.6 nm (77.0 km) S. Retrieved 2019/10/19 10:00 UTC (40 minutes ago):

RJOH 191000Z 02008KT 9999 -SHRA FEW005 SCT015 BKN030 20/17 Q1018

Closest aviation forecast (TAF) to Oki Airport

Closest forecast is Miho Yonago Airport, 41.6 nm (77.0 km) S. Retrieved 2019/10/19 06:00 UTC (5 hours ago):

TAF RJOH 190507Z 1906/2012 02008KT 9999 FEW010 SCT020 BKN035